Warning: Javascript must be enabled to use all the features on this page!


Page Loading - Please Wait...

Click to hideNews Bulletins

Peak Streamflow for the Nation

USGS 03588500 SHOAL CREEK AT IRON CITY, TN

Lawrence County, Tennessee
Hydrologic Unit Code 06030005
Latitude  35°01'26.54", Longitude  87°34'44.43" NAD27
Drainage area 348  square miles
Gage datum 534.22 feet above NGVD29
Output formats
Table
Graph
Tab-separated file
peakfq (watstore) format
Reselect output format
Water
Year
Date Gage
Height
(feet)
Stream-
flow
(cfs)
1926 1925-11-12   18,700
1927 1927-03-13   65,000
1928 1928-03-09   20,900
1929 1929-03-23   29,200
1930 1930-03-07   11,800
1931 1931-02-25   7,120
1932 1932-07-07   18,100
1933 1932-10-17   25,400
1934 1934-03-03   13,100
1935 1935-03-12   20,800
1936 1936-04-06   20,900
1937 1937-05-04   28,900
1938 1938-01-23   7,990
1939 1939-02-15   17,500
1940 1940-04-19   22,000
1941 1941-07-12   5,420
1942 1942-02-24   3,170
1943 1942-12-28   10,800
1944 1944-02-09   19,300
1945 1945-02-22   23,900
1946 1946-01-08   18,700
1947 1947-04-16   5,810
1948 1948-02-13   61,000
1949 1949-03-27   17,100
1950 1950-02-14   32,500
1951 1951-02-01   27,200
1952 1951-12-08   14,400
1953 1953-02-12   20,600
1954 1954-02-20   10,400
1955 1955-03-21   132,000
1956 1956-02-18   17,400
1957 1957-01-31   19,100
1958 1957-11-18 17.82 21,000
1959 1959-04-19 10.96 6,000
1960 1959-12-19 14.58 11,400
1961 1961-03-08 20.26 31,300
1962 1961-12-18 14.85 12,100
1963 1963-03-12 17.88 21,200
1964 1964-03-15 13.41 9,440
1965 1965-03-30 17.33 19,500
1966 1966-02-13 10.94 6,540
1967 1967-03-07 16.13 15,900
1968 1968-01-11 14.00 10,500
1969 1969-04-10 15.95 15,400
1970 1969-12-30 17.48 19,900
1971 1971-02-22 14.41 11,300
1972 1972-01-02 14.48 11,500
1973 1973-03-15 25.10 61,900
1974 1974-01-11 21.81 39,000
1975 1975-03-14 24.03 53,200
1976 1975-10-17 15.18 13,000
1977 1977-03-04 20.87 34,400
1978 1978-05-08 16.01 15,200
1979 1979-09-14 19.16 26,100
1980 1980-03-21 20.26 31,300
1981 1981-02-02 8.44 3,910
1982 1982-01-23 15.25 13,400
1983 1982-12-26 19.79 28,600
1984 1983-12-04 16.88 18,000
1985 1984-11-28 11.15 6,780
1986 1986-05-29 13.67 10,100
1987 1986-11-09 15.93 15,300
1988 1988-01-20 15.56 14,300
1989 1989-02-21 18.13 22,100
1990 1990-02-04 18.14 22,100
1991 1991-05-26 22.00 40,500
1992 1991-12-03 18.45 25,000
1993 1993-05-04 11.69 8,090
1994 1994-03-27 19.10 27,400
2001 2001-02-17 18.49 25,200
2002 2002-01-23 23.21 47,400
2003 2003-05-06 22.54 43,400
2004 2004-02-05 19.12 27,500
2005 2004-10-19 22.26 41,900
2006 2006-01-23 16.53 19,300
2007 2007-03-02 10.67 7,360
2008 2008-04-04 13.12 11,300
2009 2009-07-05 13.79 13,100
2010 2010-05-03 23.12 53,600
2011 2011-04-27 19.08 27,200
2012 2012-01-11 10.07 6,980
2013 2013-01-12 11.66 9,110
2014 2014-02-05 12.05 9,710
2015 2015-02-22 12.67 10,700
2016 2016-04-01 12.07 9,740
2017 2017-07-29 13.35 12,000
2018 2018-03-01 18.04 24,600
2019 2019-02-23 18.47 25,700
2020 2020-02-06 15.93 19,200